Saint Bonnet de Bellac- Haute Vienne - France
Donnes mto: jeudi, 01/11/2012
Date Horaire Temp. E. Hum. E. P.atmo. Pluie Vent Direction Direction Ensoleilleme Solaire P. de rose Temp au vent Rafales
01/11/2012 00:00 8,8 C 91 % 993,2 hPa 0,0 mm 9,0 km/h (2 Bft) SO 225 0 min 0 W/m 7,4 C 7,4 C 15,1 km/h (3 Bft)
01/11/2012 00:20 9,0 C 90 % 993,1 hPa 0,0 mm 9,7 km/h (2 Bft) S-SO 202 0 min 0 W/m 7,4 C 7,5 C 11,5 km/h (2 Bft)
01/11/2012 00:40 9,1 C 89 % 992,8 hPa 0,0 mm 6,1 km/h (2 Bft) S-SO 202 0 min 1 W/m 7,4 C 8,4 C 7,9 km/h (2 Bft)
01/11/2012 01:00 9,3 C 90 % 992,7 hPa 0,0 mm 12,2 km/h (2 Bft) S-SO 202 0 min 1 W/m 7,7 C 7,4 C 14,8 km/h (3 Bft)
01/11/2012 01:20 9,5 C 90 % 992,5 hPa 0,0 mm 7,6 km/h (2 Bft) S-SO 202 0 min 1 W/m 7,9 C 8,5 C 9,4 km/h (2 Bft)
01/11/2012 01:40 9,5 C 90 % 992,1 hPa 0,0 mm 4,3 km/h (1 Bft) S-SO 202 0 min 0 W/m 7,9 C 9,5 C 8,6 km/h (2 Bft)
01/11/2012 02:02 9,5 C 90 % 992,0 hPa 0,0 mm 4,7 km/h (1 Bft) S-SO 202 0 min 1 W/m 7,9 C 9,3 C 11,2 km/h (2 Bft)
01/11/2012 02:20 9,4 C 90 % 991,8 hPa 0,0 mm 2,5 km/h (1 Bft) S-SO 202 0 min 0 W/m 7,8 C 9,4 C 10,1 km/h (2 Bft)
01/11/2012 02:40 9,5 C 90 % 991,7 hPa 0,0 mm 4,3 km/h (1 Bft) S-SO 202 0 min 0 W/m 7,9 C 9,5 C 9,4 km/h (2 Bft)
01/11/2012 03:00 9,4 C 89 % 991,3 hPa 0,0 mm 7,2 km/h (2 Bft) S 180 0 min 0 W/m 7,7 C 8,5 C 14,8 km/h (3 Bft)
01/11/2012 03:20 9,6 C 89 % 991,1 hPa 0,0 mm 8,6 km/h (2 Bft) S-SO 202 0 min 0 W/m 7,9 C 8,4 C 14,0 km/h (3 Bft)
01/11/2012 03:40 9,6 C 89 % 990,9 hPa 0,2 mm 4,3 km/h (1 Bft) SO 225 0 min 0 W/m 7,9 C 9,6 C 9,4 km/h (2 Bft)
01/11/2012 04:00 9,8 C 89 % 990,7 hPa 0,1 mm 9,7 km/h (2 Bft) SO 225 0 min 0 W/m 8,1 C 8,4 C 18,7 km/h (3 Bft)
01/11/2012 04:20 9,8 C 90 % 990,2 hPa 0,0 mm 8,6 km/h (2 Bft) S-SE 157 0 min 0 W/m 8,2 C 8,7 C 14,0 km/h (3 Bft)
01/11/2012 04:40 9,8 C 90 % 989,9 hPa 0,0 mm 11,2 km/h (2 Bft) S 180 0 min 0 W/m 8,2 C 8,2 C 13,7 km/h (3 Bft)
01/11/2012 05:00 9,8 C 89 % 989,7 hPa 0,3 mm 12,6 km/h (3 Bft) S-SO 202 0 min 0 W/m 8,1 C 8,0 C 16,2 km/h (3 Bft)
01/11/2012 05:20 10,0 C 87 % 989,7 hPa 0,2 mm 15,1 km/h (3 Bft) S-SO 202 0 min 0 W/m 7,9 C 7,9 C 16,6 km/h (3 Bft)
01/11/2012 05:40 10,1 C 86 % 989,5 hPa 0,2 mm 13,7 km/h (3 Bft) S-SO 202 0 min 0 W/m 7,9 C 10,1 C 24,1 km/h (4 Bft)
01/11/2012 06:00 10,1 C 85 % 989,3 hPa 0,2 mm 15,1 km/h (3 Bft) SO 225 0 min 0 W/m 7,7 C 10,1 C 15,1 km/h (3 Bft)
01/11/2012 06:20 9,8 C 86 % 989,2 hPa 0,0 mm 10,4 km/h (2 Bft) S-SO 202 0 min 0 W/m 7,6 C 8,3 C 16,6 km/h (3 Bft)
01/11/2012 06:40 9,4 C 87 % 989,2 hPa 0,0 mm 12,6 km/h (3 Bft) S-SE 157 0 min 0 W/m 7,3 C 7,5 C 15,1 km/h (3 Bft)
01/11/2012 07:00 9,2 C 88 % 989,4 hPa 0,0 mm 11,5 km/h (2 Bft) S-SE 157 0 min 0 W/m 7,3 C 7,4 C 20,5 km/h (4 Bft)
01/11/2012 07:20 8,7 C 90 % 989,2 hPa 0,3 mm 12,6 km/h (3 Bft) S 180 0 min 0 W/m 7,2 C 6,6 C 12,6 km/h (3 Bft)
01/11/2012 07:40 8,5 C 90 % 989,2 hPa 0,0 mm 6,8 km/h (2 Bft) S 180 0 min 0 W/m 7,0 C 7,5 C 6,8 km/h (2 Bft)
01/11/2012 08:00 8,3 C 90 % 989,1 hPa 0,0 mm 18,4 km/h (3 Bft) O-SO 247 0 min 0 W/m 6,8 C 5,4 C 20,2 km/h (4 Bft)
01/11/2012 08:20 8,3 C 91 % 989,5 hPa 0,0 mm 13,0 km/h (3 Bft) S-SE 157 0 min 0 W/m 6,9 C 6,1 C 24,5 km/h (4 Bft)
01/11/2012 08:40 8,3 C 91 % 990,0 hPa 0,0 mm 6,8 km/h (2 Bft) O-SO 247 0 min 0 W/m 6,9 C 7,3 C 10,8 km/h (2 Bft)
01/11/2012 09:00 8,3 C 92 % 990,5 hPa 0,0 mm 7,9 km/h (2 Bft) SO 225 0 min 0 W/m 7,1 C 7,0 C 9,0 km/h (2 Bft)
01/11/2012 09:20 8,3 C 93 % 990,7 hPa 0,0 mm 9,7 km/h (2 Bft) O-SO 247 0 min 0 W/m 7,2 C 6,7 C 11,5 km/h (2 Bft)
01/11/2012 09:40 8,5 C 93 % 990,7 hPa 0,0 mm 9,7 km/h (2 Bft) SO 225 0 min 0 W/m 7,4 C 6,9 C 11,2 km/h (2 Bft)
01/11/2012 10:00 8,6 C 93 % 990,7 hPa 0,0 mm 10,4 km/h (2 Bft) S-SO 202 0 min 0 W/m 7,5 C 6,9 C 12,2 km/h (2 Bft)
01/11/2012 10:20 8,9 C 93 % 991,0 hPa 0,0 mm 10,8 km/h (2 Bft) SO 225 0 min 0 W/m 7,8 C 7,2 C 18,4 km/h (3 Bft)
01/11/2012 10:40 9,1 C 93 % 991,2 hPa 0,0 mm 9,7 km/h (2 Bft) SO 225 0 min 0 W/m 8,0 C 7,6 C 10,4 km/h (2 Bft)
01/11/2012 11:00 9,3 C 92 % 991,4 hPa 0,0 mm 11,9 km/h (2 Bft) SO 225 0 min 0 W/m 8,1 C 7,5 C 16,6 km/h (3 Bft)
01/11/2012 11:20 9,5 C 92 % 991,9 hPa 0,0 mm 13,7 km/h (3 Bft) SO 225 0 min 0 W/m 8,3 C 7,5 C 13,7 km/h (3 Bft)
01/11/2012 11:40 9,7 C 92 % 992,0 hPa 0,0 mm 10,4 km/h (2 Bft) SO 225 0 min 0 W/m 8,5 C 8,2 C 19,4 km/h (3 Bft)
01/11/2012 12:00 10,2 C 93 % 992,0 hPa 0,0 mm 8,6 km/h (2 Bft) S-SO 202 0 min 0 W/m 9,1 C 10,2 C 10,8 km/h (2 Bft)
01/11/2012 12:20 11,3 C 90 % 992,3 hPa 0,0 mm 8,3 km/h (2 Bft) SO 225 0 min 0 W/m 9,7 C 11,3 C 13,7 km/h (3 Bft)
01/11/2012 12:40 11,4 C 88 % 992,5 hPa 0,0 mm 5,8 km/h (2 Bft) SO 225 0 min 0 W/m 9,5 C 11,4 C 8,6 km/h (2 Bft)
01/11/2012 13:00 11,3 C 88 % 992,3 hPa 0,0 mm 3,6 km/h (1 Bft) S-SO 202 0 min 0 W/m 9,4 C 11,3 C 7,2 km/h (2 Bft)
01/11/2012 13:20 11,3 C 87 % 992,5 hPa 0,0 mm 2,5 km/h (1 Bft) S-SO 202 0 min 0 W/m 9,2 C 11,3 C 9,4 km/h (2 Bft)
01/11/2012 13:40 9,3 C 83 % 993,1 hPa 0,0 mm 4,7 km/h (1 Bft) O 270 0 min 0 W/m 6,6 C 9,1 C 10,1 km/h (2 Bft)
01/11/2012 14:00 7,9 C 88 % 992,9 hPa 0,0 mm 11,2 km/h (2 Bft) S-SE 157 0 min 0 W/m 6,0 C 5,9 C 16,6 km/h (3 Bft)
01/11/2012 14:20 7,9 C 90 % 993,0 hPa 0,0 mm 6,8 km/h (2 Bft) S-SO 202 0 min 0 W/m 6,4 C 6,8 C 13,0 km/h (3 Bft)
01/11/2012 14:40 8,0 C 91 % 993,7 hPa 0,0 mm 7,6 km/h (2 Bft) S-SO 202 0 min 0 W/m 6,6 C 6,8 C 11,9 km/h (2 Bft)
01/11/2012 15:00 8,2 C 91 % 993,8 hPa 0,0 mm 6,5 km/h (2 Bft) SO 225 0 min 0 W/m 6,8 C 7,3 C 6,5 km/h (2 Bft)
01/11/2012 15:20 8,2 C 91 % 994,0 hPa 0,0 mm 6,8 km/h (2 Bft) SO 225 0 min 0 W/m 6,8 C 7,2 C 11,5 km/h (2 Bft)
01/11/2012 15:40 8,5 C 91 % 994,4 hPa 0,0 mm 4,0 km/h (1 Bft) S-SO 202 0 min 0 W/m 7,1 C 8,5 C 6,8 km/h (2 Bft)
01/11/2012 16:00 8,2 C 90 % 994,6 hPa 0,0 mm 7,2 km/h (2 Bft) S-SO 202 0 min 0 W/m 6,7 C 7,1 C 11,9 km/h (2 Bft)
01/11/2012 16:20 7,8 C 90 % 994,9 hPa 0,0 mm 7,6 km/h (2 Bft) S-SO 202 0 min 0 W/m 6,3 C 6,5 C 12,6 km/h (3 Bft)
01/11/2012 16:40 7,8 C 91 % 994,9 hPa 0,0 mm 10,1 km/h (2 Bft) O-SO 247 0 min 0 W/m 6,4 C 6,0 C 17,3 km/h (3 Bft)
01/11/2012 17:00 7,9 C 91 % 995,3 hPa 0,0 mm 7,2 km/h (2 Bft) O-SO 247 0 min 0 W/m 6,5 C 6,7 C 7,2 km/h (2 Bft)
01/11/2012 17:20 7,7 C 91 % 995,5 hPa 0,0 mm 8,6 km/h (2 Bft) S-SO 202 0 min 0 W/m 6,3 C 6,2 C 12,2 km/h (2 Bft)
01/11/2012 17:40 7,4 C 90 % 996,0 hPa 0,0 mm 7,2 km/h (2 Bft) S-SO 202 0 min 0 W/m 5,9 C 6,1 C 9,7 km/h (2 Bft)
01/11/2012 18:00 7,3 C 91 % 996,2 hPa 0,0 mm 6,1 km/h (2 Bft) SO 225 0 min 0 W/m 5,9 C 6,3 C 10,1 km/h (2 Bft)
01/11/2012 18:20 7,0 C 91 % 996,7 hPa 0,0 mm 9,0 km/h (2 Bft) O-SO 247 0 min 0 W/m 5,6 C 5,3 C 14,0 km/h (3 Bft)
01/11/2012 18:40 7,1 C 92 % 997,2 hPa 0,0 mm 6,8 km/h (2 Bft) O-SO 247 0 min 0 W/m 5,9 C 5,9 C 15,1 km/h (3 Bft)
01/11/2012 19:00 7,3 C 92 % 997,5 hPa 0,0 mm 5,8 km/h (2 Bft) O-SO 247 0 min 0 W/m 6,1 C 6,4 C 9,0 km/h (2 Bft)
01/11/2012 19:20 7,2 C 92 % 997,9 hPa 0,0 mm 8,3 km/h (2 Bft) O-SO 247 0 min 0 W/m 6,0 C 5,6 C 14,4 km/h (3 Bft)
01/11/2012 19:40 7,1 C 92 % 998,2 hPa 0,0 mm 5,4 km/h (2 Bft) O-SO 247 0 min 0 W/m 5,9 C 6,3 C 9,7 km/h (2 Bft)
01/11/2012 19:41 7,0 C 92 % 998,2 hPa 0,0 mm 6,8 km/h (2 Bft) S-SO 202 0 min 0 W/m 5,8 C 5,8 C 11,9 km/h (2 Bft)
01/11/2012 19:45 6,9 C 92 % 997,3 hPa 0,0 mm 5,8 km/h (2 Bft) SO 225 0 min 0 W/m 5,7 C 6,0 C 13,7 km/h (3 Bft)
01/11/2012 20:00 6,9 C 92 % 997,4 hPa 0,0 mm 9,0 km/h (2 Bft) SO 225 0 min 0 W/m 5,7 C 5,1 C 11,9 km/h (2 Bft)
01/11/2012 20:15 6,9 C 92 % 997,5 hPa 0,0 mm 7,2 km/h (2 Bft) S-SO 202 0 min 0 W/m 5,7 C 5,6 C 13,3 km/h (3 Bft)
01/11/2012 20:30 7,2 C 91 % 997,8 hPa 0,0 mm 8,3 km/h (2 Bft) S-SO 202 0 min 0 W/m 5,8 C 5,6 C 8,3 km/h (2 Bft)
01/11/2012 20:45 7,3 C 90 % 998,1 hPa 0,0 mm 3,6 km/h (1 Bft) S-SO 202 0 min 0 W/m 5,8 C 7,3 C 6,5 km/h (2 Bft)
01/11/2012 21:00 7,4 C 89 % 998,5 hPa 0,0 mm 1,8 km/h (1 Bft) SO 225 0 min 0 W/m 5,7 C 7,4 C 6,5 km/h (2 Bft)
01/11/2012 21:15 7,4 C 90 % 999,1 hPa 0,0 mm 11,2 km/h (2 Bft) O-SO 247 0 min 0 W/m 5,9 C 5,3 C 17,6 km/h (3 Bft)
01/11/2012 21:30 7,1 C 90 % 998,9 hPa 0,0 mm 6,5 km/h (2 Bft) S-SO 202 0 min 0 W/m 5,6 C 6,0 C 14,4 km/h (3 Bft)
01/11/2012 21:45 6,8 C 91 % 999,1 hPa 0,0 mm 5,8 km/h (2 Bft) S-SO 202 0 min 0 W/m 5,4 C 5,9 C 5,8 km/h (2 Bft)
01/11/2012 22:00 6,7 C 91 % 999,4 hPa 0,0 mm 7,9 km/h (2 Bft) S-SO 202 0 min 0 W/m 5,3 C 5,2 C 13,0 km/h (3 Bft)
01/11/2012 22:15 6,8 C 92 % 999,7 hPa 0,0 mm 7,6 km/h (2 Bft) SO 225 0 min 0 W/m 5,6 C 5,3 C 11,5 km/h (2 Bft)
01/11/2012 22:30 6,9 C 92 % 1001,0 hPa 0,0 mm 6,5 km/h (2 Bft) SO 225 0 min 0 W/m 5,7 C 5,8 C 13,0 km/h (3 Bft)
01/11/2012 22:45 7,1 C 92 % 1000,9 hPa 0,0 mm 6,8 km/h (2 Bft) SO 225 0 min 0 W/m 5,9 C 5,9 C 8,3 km/h (2 Bft)
01/11/2012 23:00 6,9 C 92 % 1001,0 hPa 0,0 mm 5,0 km/h (1 Bft) S 180 0 min 0 W/m 5,7 C 6,2 C 8,6 km/h (2 Bft)
01/11/2012 23:15 6,8 C 92 % 1001,2 hPa 0,0 mm 5,0 km/h (1 Bft) SO 225 0 min 0 W/m 5,6 C 6,1 C 5,0 km/h (1 Bft)
01/11/2012 23:30 6,6 C 92 % 1001,3 hPa 0,0 mm 6,8 km/h (2 Bft) SO 225 0 min 0 W/m 5,4 C 5,3 C 8,6 km/h (2 Bft)
01/11/2012 23:45 6,4 C 92 % 1001,3 hPa 0,0 mm 6,5 km/h (2 Bft) SO 225 0 min 0 W/m 5,2 C 5,2 C 10,1 km/h (2 Bft)
_ Min-Heure 23:45 13:40 08:00 - 21:00 - - - - 23:45 20:00 23:15
Minimum _ 6,4 C 83 % 989,1 hPa - 1,8 km/h (1 Bft) - - - - 5,2 C 5,1 C 5,0 km/h (1 Bft)
_ Max-Heure 12:40 12:00 23:45 05:00 08:00 - - 23:45 02:02 12:20 12:40 08:20
Maximum _ 11,4 C 93 % 1001,3 hPa 0,3 mm 18,4 km/h
O-SO (3 Bft)
- - 0 min 1 W/m 9,7 C 11,4 C 24,5 km/h
S-SE (4 Bft)
Moyenne _ 8,6 C 90 % 993,6 hPa #1,4 mm 8,3 km/h (2 Bft) S-SO - #0 min. 0 W/m 7,1 C 7,5 C 12,4 km/h (2 Bft)
Saint Bonnet de Bellac- Haute Vienne - France